Time;durP1;ratioP1;P1;durP2;ratioP2;P2;SDS_P1;SDS_P2;PMS_P1;PMS_P2;Temp;Humidity;BMP_temperature;BMP_pressure;BME280_temperature;BME280_humidity;BME280_pressure;Samples;Min_cycle;Max_cycle;Signal;HPM_P1;HPM_P2
2022/01/25 00:24:16;;;;;;;51.97;17.90;;;;;;;;;;4955032;28;20755;-64
2022/01/25 00:32:21;;;;;;;41.47;18.73;;;;;;;;;;4953106;28;20219;-64
2022/01/25 00:34:49;;;;;;;41.03;19.37;;;;;;;;;;4953920;28;20227;-63
2022/01/25 00:37:17;;;;;;;46.60;20.37;;;;;;;;;;4951567;28;20221;-63
2022/01/25 00:39:44;;;;;;;37.87;19.03;;;;;;;;;;4958636;28;20229;-64
2022/01/25 00:42:12;;;;;;;47.10;18.83;;;;;;;;;;4955573;28;20690;-64
2022/01/25 00:44:45;;;;;;;65.23;19.67;;;;;;;;;;4955345;28;20209;-65
2022/01/25 00:47:12;;;;;;;83.87;19.23;;;;;;;;;;4953254;28;21645;-63
2022/01/25 00:49:40;;;;;;;39.53;16.90;;;;;;;;;;4952868;28;20233;-63
2022/01/25 00:55:06;;;;;;;64.33;17.93;;;;;;;;;;4913124;28;20214;-64
2022/01/25 00:57:33;;;;;;;43.70;17.10;;;;;;;;;;4954393;28;20208;-64
2022/01/25 01:00:00;;;;;;;31.13;17.10;;;;;;;;;;4955893;28;20248;-64
2022/01/25 01:02:28;;;;;;;40.70;17.37;;;;;;;;;;4952768;28;20215;-64
2022/01/25 01:04:56;;;;;;;34.47;17.47;;;;;;;;;;4957173;28;20219;-64
2022/01/25 01:07:24;;;;;;;33.70;18.30;;;;;;;;;;4959648;28;21798;-63
2022/01/25 01:09:53;;;;;;;36.00;18.83;;;;;;;;;;4960311;28;20232;-64
2022/01/25 01:13:03;;;;;;;37.83;18.40;;;;;;;;;;4953380;28;20268;-63
2022/01/25 01:15:30;;;;;;;42.73;19.03;;;;;;;;;;4954668;28;20212;-62
2022/01/25 01:45:26;;;;;;;27.90;14.60;;;;;;;;;;4955228;28;20213;-65
2022/01/25 01:50:14;;;;;;;24.53;13.70;;;;;;;;;;4954718;28;20240;-64
2022/01/25 01:52:42;;;;;;;23.33;12.83;;;;;;;;;;4957402;28;20200;-64
2022/01/25 01:55:10;;;;;;;23.27;13.40;;;;;;;;;;4956231;28;20265;-64
2022/01/25 01:57:37;;;;;;;23.37;13.73;;;;;;;;;;4953120;28;20766;-64
2022/01/25 02:00:06;;;;;;;21.97;13.77;;;;;;;;;;4953215;28;20232;-64
2022/01/25 02:02:33;;;;;;;30.50;14.77;;;;;;;;;;4955007;28;20216;-64
2022/01/25 02:05:01;;;;;;;28.37;14.37;;;;;;;;;;4950854;28;20204;-65
2022/01/25 02:07:28;;;;;;;29.47;14.80;;;;;;;;;;4954222;28;20682;-65
2022/01/25 02:09:56;;;;;;;27.80;14.67;;;;;;;;;;4956117;28;20225;-65
2022/01/25 02:12:23;;;;;;;29.80;15.47;;;;;;;;;;4943844;28;20209;-65
2022/01/25 02:14:51;;;;;;;26.30;14.63;;;;;;;;;;4952525;28;21713;-63
2022/01/25 02:22:53;;;;;;;23.73;12.70;;;;;;;;;;4951907;28;20217;-63
2022/01/25 02:25:21;;;;;;;25.20;13.77;;;;;;;;;;4955585;28;20697;-63
2022/01/25 02:27:48;;;;;;;23.87;12.77;;;;;;;;;;4955244;28;20205;-65
2022/01/25 02:30:16;;;;;;;24.97;12.13;;;;;;;;;;4953737;28;20339;-65
2022/01/25 02:32:43;;;;;;;22.60;12.97;;;;;;;;;;4956644;28;20208;-64
2022/01/25 02:35:12;;;;;;;21.50;12.27;;;;;;;;;;4951980;28;20223;-64
2022/01/25 02:37:39;;;;;;;21.60;12.30;;;;;;;;;;4951903;28;20248;-65
2022/01/25 02:40:07;;;;;;;20.97;12.33;;;;;;;;;;4949247;28;20291;-63
2022/01/25 02:42:34;;;;;;;22.07;12.40;;;;;;;;;;4953697;28;20200;-64
2022/01/25 02:45:03;;;;;;;20.07;12.37;;;;;;;;;;4948513;28;20210;-64
2022/01/25 02:50:16;;;;;;;22.87;12.73;;;;;;;;;;4950200;28;20288;-65
2022/01/25 02:52:43;;;;;;;19.77;11.87;;;;;;;;;;4952991;28;20205;-64
2022/01/25 02:55:11;;;;;;;19.57;11.73;;;;;;;;;;4954772;28;20224;-64
2022/01/25 02:57:38;;;;;;;18.90;11.60;;;;;;;;;;4957697;28;20212;-64
2022/01/25 03:00:08;;;;;;;21.13;12.67;;;;;;;;;;4953618;28;20296;-64
2022/01/25 03:02:38;;;;;;;22.70;12.97;;;;;;;;;;4950788;28;20220;-63
2022/01/25 03:05:06;;;;;;;21.30;12.40;;;;;;;;;;4952836;28;20223;-64
2022/01/25 03:07:34;;;;;;;19.93;12.20;;;;;;;;;;4946872;28;20205;-64
2022/01/25 03:10:02;;;;;;;20.53;12.20;;;;;;;;;;4950207;28;20239;-63
2022/01/25 03:12:45;;;;;;;20.30;11.60;;;;;;;;;;4944902;28;20277;-63
2022/01/25 03:17:55;;;;;;;22.80;13.43;;;;;;;;;;4946497;28;20223;-64
2022/01/25 03:23:23;;;;;;;29.37;14.10;;;;;;;;;;4940774;28;20220;-64
2022/01/25 03:25:51;;;;;;;25.70;13.37;;;;;;;;;;4954998;28;20205;-65
2022/01/25 03:28:19;;;;;;;21.57;12.33;;;;;;;;;;4953074;28;20215;-65
2022/01/25 03:30:48;;;;;;;20.17;11.50;;;;;;;;;;4954242;28;20331;-64
2022/01/25 03:33:15;;;;;;;19.50;11.07;;;;;;;;;;4949210;28;20215;-63
2022/01/25 03:35:43;;;;;;;19.20;11.70;;;;;;;;;;4947796;28;20217;-64
2022/01/25 03:38:12;;;;;;;20.93;12.30;;;;;;;;;;4947085;28;20238;-65
2022/01/25 03:40:39;;;;;;;20.43;12.23;;;;;;;;;;4953832;28;20240;-65
2022/01/25 03:43:08;;;;;;;19.73;11.90;;;;;;;;;;4952640;28;20254;-64
2022/01/25 03:45:38;;;;;;;19.50;11.40;;;;;;;;;;4957592;28;20240;-62
2022/01/25 03:50:41;;;;;;;19.30;11.57;;;;;;;;;;4954341;28;20231;-64
2022/01/25 03:53:09;;;;;;;18.47;11.03;;;;;;;;;;4949446;28;20813;-63
2022/01/25 03:55:37;;;;;;;18.30;11.80;;;;;;;;;;4951340;28;20811;-64
2022/01/25 03:58:05;;;;;;;17.77;11.43;;;;;;;;;;4949354;28;20209;-63
2022/01/25 04:00:33;;;;;;;21.13;11.97;;;;;;;;;;4954691;28;20239;-63
2022/01/25 04:03:06;;;;;;;20.77;12.37;;;;;;;;;;4953956;28;20609;-63
2022/01/25 04:05:37;;;;;;;23.20;12.53;;;;;;;;;;4954875;28;20209;-63
2022/01/25 04:08:05;;;;;;;19.83;12.33;;;;;;;;;;4954197;28;20737;-64
2022/01/25 04:10:33;;;;;;;20.83;12.47;;;;;;;;;;4949271;28;21661;-64
2022/01/25 04:13:00;;;;;;;20.07;11.50;;;;;;;;;;4947043;28;20221;-64
2022/01/25 04:15:28;;;;;;;19.67;11.23;;;;;;;;;;4946924;28;20231;-65
2022/01/25 04:20:58;;;;;;;19.30;11.57;;;;;;;;;;4942268;28;20231;-65
2022/01/25 04:26:11;;;;;;;18.73;11.43;;;;;;;;;;4949781;28;20232;-63
2022/01/25 04:28:39;;;;;;;19.90;11.93;;;;;;;;;;4948076;28;20205;-64
2022/01/25 04:31:06;;;;;;;19.37;11.83;;;;;;;;;;4950796;28;20232;-62
2022/01/25 04:33:43;;;;;;;22.07;12.07;;;;;;;;;;4951787;28;21086;-62
2022/01/25 04:49:48;;;;;;;18.67;11.17;;;;;;;;;;4951888;28;20246;-63
2022/01/25 04:52:19;;;;;;;21.87;12.20;;;;;;;;;;4953324;28;20221;-64
2022/01/25 04:57:34;;;;;;;19.80;11.93;;;;;;;;;;4954301;28;20214;-64
2022/01/25 05:00:11;;;;;;;22.30;12.00;;;;;;;;;;4955104;28;20245;-64
2022/01/25 05:05:33;;;;;;;20.70;12.27;;;;;;;;;;4953048;28;20203;-64
2022/01/25 05:10:35;;;;;;;20.80;12.17;;;;;;;;;;4955001;28;20226;-63
2022/01/25 05:18:22;;;;;;;27.90;14.10;;;;;;;;;;4945717;28;20216;-63
2022/01/25 05:23:36;;;;;;;31.57;15.90;;;;;;;;;;4948754;28;20610;-63
2022/01/25 05:26:03;;;;;;;25.17;14.10;;;;;;;;;;4947479;28;20207;-64
2022/01/25 05:28:32;;;;;;;25.80;13.20;;;;;;;;;;4965357;28;20204;-63
2022/01/25 05:30:59;;;;;;;23.17;12.63;;;;;;;;;;4944492;28;20231;-64
2022/01/25 05:33:27;;;;;;;21.37;13.20;;;;;;;;;;4950956;28;20220;-63
2022/01/25 05:35:55;;;;;;;24.57;14.13;;;;;;;;;;4948340;28;20208;-64
2022/01/25 05:38:24;;;;;;;25.33;13.53;;;;;;;;;;4953994;28;20231;-63
2022/01/25 05:41:02;;;;;;;25.30;14.17;;;;;;;;;;4951215;28;20236;-64
2022/01/25 05:46:19;;;;;;;24.53;14.13;;;;;;;;;;4956923;28;20212;-63
2022/01/25 05:48:47;;;;;;;25.00;13.33;;;;;;;;;;4953283;28;20224;-63
2022/01/25 05:51:15;;;;;;;24.93;12.63;;;;;;;;;;4956215;28;20605;-63
2022/01/25 05:53:42;;;;;;;23.70;12.73;;;;;;;;;;4956926;28;20688;-64
2022/01/25 05:56:10;;;;;;;29.67;14.53;;;;;;;;;;4955309;28;20222;-63
2022/01/25 05:58:37;;;;;;;29.57;15.23;;;;;;;;;;4958307;28;20844;-63
2022/01/25 06:01:05;;;;;;;26.70;15.63;;;;;;;;;;4954709;28;20640;-64
2022/01/25 06:03:33;;;;;;;31.13;16.53;;;;;;;;;;4956310;28;20311;-66
2022/01/25 06:06:00;;;;;;;26.90;14.23;;;;;;;;;;4945972;28;20220;-64
2022/01/25 06:08:28;;;;;;;23.30;12.87;;;;;;;;;;4956739;28;20220;-64
2022/01/25 06:10:56;;;;;;;23.07;12.87;;;;;;;;;;4954710;28;20253;-64
2022/01/25 06:13:23;;;;;;;23.13;12.50;;;;;;;;;;4955957;28;20580;-64
2022/01/25 06:15:51;;;;;;;23.50;12.77;;;;;;;;;;4955446;28;20216;-64
2022/01/25 06:18:18;;;;;;;22.60;13.47;;;;;;;;;;4948311;28;20215;-64
2022/01/25 06:20:46;;;;;;;23.63;13.57;;;;;;;;;;4956692;28;20242;-63
2022/01/25 06:23:13;;;;;;;23.97;13.33;;;;;;;;;;4954936;28;20267;-65
2022/01/25 06:25:41;;;;;;;24.20;13.17;;;;;;;;;;4945076;28;20209;-63
2022/01/25 06:28:09;;;;;;;28.87;15.03;;;;;;;;;;4953091;28;20207;-63
2022/01/25 06:30:36;;;;;;;22.93;13.70;;;;;;;;;;4958552;28;20239;-65
2022/01/25 06:33:08;;;;;;;27.20;13.97;;;;;;;;;;4955618;28;20261;-65
2022/01/25 06:35:36;;;;;;;29.60;14.60;;;;;;;;;;4957522;28;20218;-64
2022/01/25 06:38:03;;;;;;;23.13;13.57;;;;;;;;;;4956512;28;20361;-65
2022/01/25 06:40:31;;;;;;;25.97;13.27;;;;;;;;;;4958746;28;20307;-63
2022/01/25 06:42:58;;;;;;;26.67;13.57;;;;;;;;;;4957887;28;20211;-64
2022/01/25 06:45:27;;;;;;;23.67;12.83;;;;;;;;;;4951735;28;20216;-65
2022/01/25 06:47:55;;;;;;;28.03;15.37;;;;;;;;;;4960114;28;20219;-64
2022/01/25 06:50:25;;;;;;;30.70;15.77;;;;;;;;;;4957384;28;20238;-65
2022/01/25 06:52:53;;;;;;;27.23;14.27;;;;;;;;;;4957410;28;20220;-65
2022/01/25 06:55:37;;;;;;;25.10;12.77;;;;;;;;;;4951784;28;20667;-63
2022/01/25 06:58:05;;;;;;;28.53;15.33;;;;;;;;;;4954911;28;20250;-63
2022/01/25 07:00:32;;;;;;;27.50;15.07;;;;;;;;;;4953723;28;21637;-65
2022/01/25 07:03:00;;;;;;;34.47;15.17;;;;;;;;;;4954894;28;20218;-63
2022/01/25 07:05:27;;;;;;;32.93;14.53;;;;;;;;;;4954396;28;20208;-63
2022/01/25 07:07:55;;;;;;;35.23;16.57;;;;;;;;;;4955540;28;20274;-63
2022/01/25 07:10:23;;;;;;;32.57;15.40;;;;;;;;;;4951841;28;20235;-64
2022/01/25 07:12:50;;;;;;;29.97;16.37;;;;;;;;;;4952217;28;20234;-64
2022/01/25 07:15:18;;;;;;;34.63;16.97;;;;;;;;;;4950216;28;20216;-65
2022/01/25 07:17:45;;;;;;;35.23;16.40;;;;;;;;;;4954358;28;20674;-65
2022/01/25 07:20:16;;;;;;;39.33;17.67;;;;;;;;;;4955300;28;20655;-64
2022/01/25 07:22:43;;;;;;;34.47;16.50;;;;;;;;;;4960999;28;20703;-63
2022/01/25 07:25:12;;;;;;;32.93;15.60;;;;;;;;;;4954512;28;20215;-64
2022/01/25 07:27:40;;;;;;;33.00;16.27;;;;;;;;;;4959395;28;20212;-63
2022/01/25 07:30:08;;;;;;;33.90;15.93;;;;;;;;;;4955982;28;20244;-62
2022/01/25 07:32:36;;;;;;;31.67;15.20;;;;;;;;;;4947929;28;20255;-65
2022/01/25 07:35:06;;;;;;;33.23;15.60;;;;;;;;;;4955381;28;20211;-64
2022/01/25 07:37:35;;;;;;;36.13;17.40;;;;;;;;;;4947418;28;20218;-64
2022/01/25 07:40:05;;;;;;;29.23;15.77;;;;;;;;;;4953477;28;20316;-63
2022/01/25 07:42:36;;;;;;;27.93;15.53;;;;;;;;;;4955063;28;20212;-65
2022/01/25 07:45:24;;;;;;;29.70;15.07;;;;;;;;;;4951632;28;20687;-64
2022/01/25 07:47:58;;;;;;;30.10;14.83;;;;;;;;;;4951208;28;20224;-62
2022/01/25 07:50:29;;;;;;;27.63;14.20;;;;;;;;;;4954344;28;20236;-64
2022/01/25 07:52:57;;;;;;;29.07;14.70;;;;;;;;;;4956712;28;20216;-64
2022/01/25 07:55:25;;;;;;;31.83;15.50;;;;;;;;;;4952215;28;20223;-62
2022/01/25 07:57:52;;;;;;;30.27;16.03;;;;;;;;;;4950158;28;20228;-65
2022/01/25 08:00:20;;;;;;;33.43;17.10;;;;;;;;;;4956663;28;20247;-64
2022/01/25 08:02:47;;;;;;;30.77;15.60;;;;;;;;;;4947946;28;20212;-63
2022/01/25 08:05:19;;;;;;;30.00;15.37;;;;;;;;;;4946850;28;20209;-64
2022/01/25 08:08:01;;;;;;;27.70;13.93;;;;;;;;;;4907804;29;20202;-64
2022/01/25 08:10:52;;;;;;;31.23;14.47;;;;;;;;;;4824652;29;20243;-65
2022/01/25 08:13:36;;;;;;;32.40;14.70;;;;;;;;;;4870126;29;20237;-62
2022/01/25 08:16:13;;;;;;;25.87;14.17;;;;;;;;;;4879312;29;20221;-63
2022/01/25 08:19:00;;;;;;;28.87;14.97;;;;;;;;;;4925378;28;20295;-63
2022/01/25 08:21:33;;;;;;;26.27;13.97;;;;;;;;;;4933634;28;20351;-62
2022/01/25 08:24:13;;;;;;;26.20;14.17;;;;;;;;;;4944198;28;20204;-64
2022/01/25 08:26:49;;;;;;;28.13;14.57;;;;;;;;;;4943947;28;20217;-63
2022/01/25 08:29:38;;;;;;;26.57;14.13;;;;;;;;;;4880512;29;20219;-63
2022/01/25 08:32:23;;;;;;;23.70;12.80;;;;;;;;;;4895919;29;20250;-63
2022/01/25 08:35:04;;;;;;;28.63;15.23;;;;;;;;;;4877246;29;20211;-65
2022/01/25 08:37:40;;;;;;;26.63;15.03;;;;;;;;;;4901670;28;20219;-64
2022/01/25 08:40:08;;;;;;;30.10;15.13;;;;;;;;;;4954412;28;20236;-63
2022/01/25 08:42:41;;;;;;;29.33;15.33;;;;;;;;;;4945054;28;20214;-64
2022/01/25 08:45:17;;;;;;;29.00;14.97;;;;;;;;;;4952026;28;20216;-63
2022/01/25 08:47:56;;;;;;;27.67;14.93;;;;;;;;;;4948225;28;20208;-62
2022/01/25 08:50:38;;;;;;;27.60;14.13;;;;;;;;;;4948200;28;23315;-64
2022/01/25 08:53:21;;;;;;;23.63;13.13;;;;;;;;;;4954754;28;20306;-64
2022/01/25 08:56:05;;;;;;;27.63;14.47;;;;;;;;;;4953172;28;20508;-63
2022/01/25 08:58:36;;;;;;;25.40;14.67;;;;;;;;;;4955094;28;20212;-63
2022/01/25 09:01:04;;;;;;;25.13;14.03;;;;;;;;;;4954416;28;20273;-64
2022/01/25 09:03:31;;;;;;;28.87;15.60;;;;;;;;;;4953200;28;20214;-64
2022/01/25 09:05:59;;;;;;;28.27;14.87;;;;;;;;;;4951503;28;20295;-63
2022/01/25 09:08:28;;;;;;;29.10;14.37;;;;;;;;;;4955056;28;20202;-63
2022/01/25 09:11:04;;;;;;;30.03;15.70;;;;;;;;;;4953387;28;20232;-63
2022/01/25 09:13:32;;;;;;;30.40;15.17;;;;;;;;;;4948448;28;20236;-65
2022/01/25 09:16:00;;;;;;;26.17;13.90;;;;;;;;;;4951966;28;20582;-62
2022/01/25 09:18:28;;;;;;;28.10;15.07;;;;;;;;;;4952385;28;20214;-63
2022/01/25 09:20:56;;;;;;;27.00;14.83;;;;;;;;;;4956233;28;20276;-63
2022/01/25 09:23:25;;;;;;;32.10;14.90;;;;;;;;;;4960166;28;20212;-63
2022/01/25 09:25:52;;;;;;;29.83;15.70;;;;;;;;;;4962695;28;25158;-64
2022/01/25 09:28:20;;;;;;;28.80;15.10;;;;;;;;;;4953630;28;20683;-64
2022/01/25 09:30:48;;;;;;;31.10;15.63;;;;;;;;;;4948814;28;20241;-64
2022/01/25 09:33:20;;;;;;;29.00;15.63;;;;;;;;;;4955209;28;20680;-63
2022/01/25 09:35:47;;;;;;;29.60;15.53;;;;;;;;;;4955367;28;20255;-63
2022/01/25 09:38:15;;;;;;;29.73;14.63;;;;;;;;;;4958753;28;20225;-63
2022/01/25 09:40:43;;;;;;;31.43;16.90;;;;;;;;;;4956878;28;20228;-64
2022/01/25 09:43:10;;;;;;;28.67;13.67;;;;;;;;;;4953664;28;22226;-63
2022/01/25 09:45:39;;;;;;;28.07;13.57;;;;;;;;;;4959827;28;20210;-64
2022/01/25 09:48:07;;;;;;;28.27;14.57;;;;;;;;;;4959104;28;20719;-64
2022/01/25 09:50:35;;;;;;;25.77;14.37;;;;;;;;;;4954545;28;20248;-63
2022/01/25 09:53:04;;;;;;;27.77;14.70;;;;;;;;;;4955926;28;20209;-63
2022/01/25 09:55:33;;;;;;;25.57;14.17;;;;;;;;;;4967673;28;20217;-63
2022/01/25 09:58:02;;;;;;;26.67;13.93;;;;;;;;;;4964325;28;20214;-64
2022/01/25 10:00:31;;;;;;;28.37;14.37;;;;;;;;;;4957775;28;20238;-63
2022/01/25 10:05:34;;;;;;;28.47;15.57;;;;;;;;;;4958237;28;20234;-64
2022/01/25 10:08:05;;;;;;;26.63;13.73;;;;;;;;;;4951733;28;20205;-64
2022/01/25 10:10:34;;;;;;;24.33;13.50;;;;;;;;;;4958395;28;20231;-63
2022/01/25 10:13:08;;;;;;;25.27;13.47;;;;;;;;;;4951547;28;20208;-64
2022/01/25 10:15:35;;;;;;;26.00;14.47;;;;;;;;;;4952714;28;20273;-64
2022/01/25 10:18:14;;;;;;;25.80;13.77;;;;;;;;;;4954688;28;20944;-65
2022/01/25 10:20:47;;;;;;;23.30;13.20;;;;;;;;;;4959377;28;20740;-64
2022/01/25 10:23:18;;;;;;;24.10;13.57;;;;;;;;;;4956121;28;20220;-64
2022/01/25 10:25:48;;;;;;;25.30;14.90;;;;;;;;;;4972865;28;20208;-63
2022/01/25 10:28:16;;;;;;;24.13;14.00;;;;;;;;;;4954502;28;20252;-64
2022/01/25 10:30:49;;;;;;;25.57;14.53;;;;;;;;;;4953112;28;20931;-62
2022/01/25 10:33:25;;;;;;;21.47;12.53;;;;;;;;;;4957593;28;20264;-64
2022/01/25 10:35:53;;;;;;;23.63;13.77;;;;;;;;;;4948878;28;20212;-63
2022/01/25 10:38:22;;;;;;;23.17;13.60;;;;;;;;;;4945429;28;20765;-63
2022/01/25 10:40:54;;;;;;;24.60;14.13;;;;;;;;;;4955425;28;20251;-63
2022/01/25 10:43:23;;;;;;;21.80;13.47;;;;;;;;;;4955127;28;20216;-63
2022/01/25 10:46:09;;;;;;;19.73;12.00;;;;;;;;;;4955989;28;20237;-63
2022/01/25 10:48:38;;;;;;;18.93;12.70;;;;;;;;;;4958065;28;20212;-64
2022/01/25 10:51:13;;;;;;;16.40;11.50;;;;;;;;;;4951301;28;20248;-64
2022/01/25 10:53:40;;;;;;;17.97;12.60;;;;;;;;;;4955846;28;20212;-64
2022/01/25 10:56:08;;;;;;;17.33;12.13;;;;;;;;;;4959329;28;20212;-64
2022/01/25 10:58:37;;;;;;;17.20;11.97;;;;;;;;;;4957097;28;20274;-64
2022/01/25 11:01:04;;;;;;;17.07;11.90;;;;;;;;;;4954154;28;20228;-64
2022/01/25 11:03:35;;;;;;;17.97;12.47;;;;;;;;;;4957584;28;20213;-64
2022/01/25 11:06:17;;;;;;;17.93;12.23;;;;;;;;;;4957504;28;20217;-64
2022/01/25 11:08:46;;;;;;;18.40;12.97;;;;;;;;;;4960473;28;20309;-64
2022/01/25 11:11:23;;;;;;;18.80;12.57;;;;;;;;;;4950334;28;20315;-63
2022/01/25 11:13:53;;;;;;;18.73;12.73;;;;;;;;;;4940293;28;20282;-64
2022/01/25 11:16:20;;;;;;;19.23;13.03;;;;;;;;;;4940925;28;20223;-65
2022/01/25 11:18:48;;;;;;;18.43;13.23;;;;;;;;;;4956205;28;20214;-64
2022/01/25 11:21:17;;;;;;;18.40;13.17;;;;;;;;;;4950237;28;20240;-64
2022/01/25 11:23:44;;;;;;;17.57;12.27;;;;;;;;;;4955128;28;20213;-63
2022/01/25 11:26:13;;;;;;;18.47;13.53;;;;;;;;;;4953340;28;20216;-64
2022/01/25 11:28:44;;;;;;;19.70;13.57;;;;;;;;;;4952998;28;20232;-64
2022/01/25 11:31:15;;;;;;;19.63;12.93;;;;;;;;;;4954374;28;20240;-64
2022/01/25 11:33:45;;;;;;;20.50;13.33;;;;;;;;;;4953613;28;20213;-62
2022/01/25 11:36:12;;;;;;;22.97;13.63;;;;;;;;;;4953581;28;20300;-64
2022/01/25 11:38:58;;;;;;;20.00;13.77;;;;;;;;;;4955049;28;20221;-63
2022/01/25 11:41:26;;;;;;;20.30;13.50;;;;;;;;;;4955072;28;20236;-65
2022/01/25 11:44:06;;;;;;;21.10;13.33;;;;;;;;;;4953998;28;20204;-65
2022/01/25 11:46:34;;;;;;;22.77;13.57;;;;;;;;;;4958557;28;20262;-63
2022/01/25 11:49:05;;;;;;;19.37;12.60;;;;;;;;;;4967048;28;20213;-64
2022/01/25 11:51:34;;;;;;;20.17;13.30;;;;;;;;;;4965331;28;20483;-64
2022/01/25 11:54:04;;;;;;;23.30;14.37;;;;;;;;;;4954136;28;20209;-65
2022/01/25 11:56:32;;;;;;;20.33;12.97;;;;;;;;;;4952555;28;20311;-65
2022/01/25 11:59:00;;;;;;;21.00;13.37;;;;;;;;;;4954739;28;20268;-65
2022/01/25 12:01:29;;;;;;;17.83;12.90;;;;;;;;;;4954661;28;20666;-64
2022/01/25 12:04:01;;;;;;;19.27;13.03;;;;;;;;;;4950140;28;20221;-63
2022/01/25 12:06:32;;;;;;;22.17;13.83;;;;;;;;;;4947200;28;20292;-64
2022/01/25 12:11:50;;;;;;;18.73;12.53;;;;;;;;;;4958271;28;20261;-65
2022/01/25 12:14:23;;;;;;;19.67;12.77;;;;;;;;;;4953699;28;20683;-65
2022/01/25 12:16:52;;;;;;;18.13;12.37;;;;;;;;;;4951457;28;20204;-64
2022/01/25 12:19:40;;;;;;;16.53;11.60;;;;;;;;;;4955539;28;20208;-64
2022/01/25 12:22:12;;;;;;;18.07;12.63;;;;;;;;;;4952448;28;20239;-64
2022/01/25 12:24:51;;;;;;;16.47;11.83;;;;;;;;;;4950610;28;20224;-64
2022/01/25 12:27:25;;;;;;;20.13;13.60;;;;;;;;;;4952503;28;20263;-64
2022/01/25 12:30:01;;;;;;;17.23;12.27;;;;;;;;;;4954467;28;20233;-64
2022/01/25 12:32:33;;;;;;;16.07;11.60;;;;;;;;;;4957483;28;20212;-64
2022/01/25 12:35:19;;;;;;;16.40;11.73;;;;;;;;;;4956856;28;20210;-65
2022/01/25 12:37:53;;;;;;;16.07;11.47;;;;;;;;;;4956601;28;20217;-64
2022/01/25 12:40:28;;;;;;;15.77;11.93;;;;;;;;;;4956131;28;20774;-64
2022/01/25 12:42:57;;;;;;;14.53;11.10;;;;;;;;;;4951640;28;20299;-65
2022/01/25 12:45:26;;;;;;;15.27;11.80;;;;;;;;;;4953744;28;20217;-65
2022/01/25 12:47:54;;;;;;;14.23;11.10;;;;;;;;;;4956768;28;20197;-65
2022/01/25 12:50:22;;;;;;;14.53;11.50;;;;;;;;;;4953251;28;20232;-66
2022/01/25 12:52:49;;;;;;;16.33;12.00;;;;;;;;;;4956920;28;20312;-64
2022/01/25 12:55:22;;;;;;;15.53;11.83;;;;;;;;;;4955810;28;20267;-64
2022/01/25 12:57:53;;;;;;;15.93;11.67;;;;;;;;;;4959919;28;20229;-64
2022/01/25 13:00:21;;;;;;;15.57;12.07;;;;;;;;;;4972816;28;20232;-64
2022/01/25 13:02:48;;;;;;;15.63;11.57;;;;;;;;;;4956675;28;20980;-65
2022/01/25 13:05:17;;;;;;;18.13;11.90;;;;;;;;;;4954971;28;20644;-64
2022/01/25 13:07:45;;;;;;;19.63;11.60;;;;;;;;;;4952194;28;20209;-65
2022/01/25 13:10:23;;;;;;;14.93;10.83;;;;;;;;;;4960107;28;20653;-65
2022/01/25 13:13:00;;;;;;;16.17;11.27;;;;;;;;;;4954879;28;20220;-65
2022/01/25 13:15:56;;;;;;;14.63;10.47;;;;;;;;;;4953592;28;20224;-64
2022/01/25 13:18:15;;;;;;;13.43;10.07;;;;;;;;;;4956430;28;20280;-63
2022/01/25 13:20:46;;;;;;;14.40;10.43;;;;;;;;;;4955031;28;20236;-64
2022/01/25 13:23:14;;;;;;;15.43;10.90;;;;;;;;;;4948017;28;20248;-64
2022/01/25 13:25:55;;;;;;;18.23;11.80;;;;;;;;;;4960465;28;20319;-64
2022/01/25 13:28:36;;;;;;;14.57;10.70;;;;;;;;;;4955865;28;20216;-64
2022/01/25 13:31:18;;;;;;;15.03;10.73;;;;;;;;;;4955027;28;20238;-64
2022/01/25 13:33:47;;;;;;;14.67;11.03;;;;;;;;;;4958883;28;20213;-64
2022/01/25 13:36:20;;;;;;;14.37;10.73;;;;;;;;;;4957204;28;20212;-64
2022/01/25 13:38:49;;;;;;;14.90;10.67;;;;;;;;;;4954326;28;20221;-63
2022/01/25 13:41:26;;;;;;;14.17;10.33;;;;;;;;;;4958305;28;20801;-65
2022/01/25 13:46:29;;;;;;;14.70;10.77;;;;;;;;;;4953561;28;20196;-64
2022/01/25 13:48:58;;;;;;;16.07;11.10;;;;;;;;;;4960297;28;20214;-64
2022/01/25 13:51:27;;;;;;;15.00;10.90;;;;;;;;;;4961666;28;20753;-64
2022/01/25 13:53:59;;;;;;;14.87;10.40;;;;;;;;;;4949965;28;20304;-64
2022/01/25 13:56:28;;;;;;;17.23;11.17;;;;;;;;;;4959617;28;20213;-64
2022/01/25 13:58:56;;;;;;;15.47;11.33;;;;;;;;;;4953630;28;20216;-67
2022/01/25 14:01:24;;;;;;;16.17;11.27;;;;;;;;;;4959584;28;20236;-63
2022/01/25 14:03:54;;;;;;;17.20;10.47;;;;;;;;;;4956247;28;20201;-64
2022/01/25 14:06:23;;;;;;;16.43;10.70;;;;;;;;;;4953521;28;20850;-63
2022/01/25 14:08:52;;;;;;;13.53;10.37;;;;;;;;;;4958629;28;20212;-65
2022/01/25 14:11:31;;;;;;;14.70;10.40;;;;;;;;;;4955561;28;20603;-64
2022/01/25 14:22:43;;;;;;;17.57;12.73;;;;;;;;;;4961039;28;20233;-64
2022/01/25 14:25:10;;;;;;;15.93;11.70;;;;;;;;;;4953556;28;20698;-66
2022/01/25 14:27:52;;;;;;;13.80;10.07;;;;;;;;;;4956776;28;20200;-65
2022/01/25 14:30:20;;;;;;;13.20;10.10;;;;;;;;;;4954167;28;20225;-66
2022/01/25 14:33:02;;;;;;;13.20;9.90;;;;;;;;;;4955208;28;20213;-65
2022/01/25 14:35:31;;;;;;;12.90;10.27;;;;;;;;;;4959230;28;20937;-65
2022/01/25 14:38:05;;;;;;;13.77;10.10;;;;;;;;;;4954631;28;20247;-64
2022/01/25 14:40:32;;;;;;;12.60;10.30;;;;;;;;;;4954035;28;21160;-64
2022/01/25 14:43:03;;;;;;;13.23;10.90;;;;;;;;;;4958788;28;20276;-64
2022/01/25 14:45:31;;;;;;;14.43;10.37;;;;;;;;;;4956337;28;20220;-64
2022/01/25 14:48:00;;;;;;;14.20;11.10;;;;;;;;;;4953368;28;20239;-64
2022/01/25 14:50:33;;;;;;;14.60;10.30;;;;;;;;;;4955322;28;20237;-64
2022/01/25 14:53:01;;;;;;;18.57;12.70;;;;;;;;;;4954301;28;20217;-64
2022/01/25 14:55:30;;;;;;;16.43;11.40;;;;;;;;;;4956276;28;21288;-64
2022/01/25 14:58:20;;;;;;;16.10;11.23;;;;;;;;;;4953194;28;20579;-64
2022/01/25 15:00:52;;;;;;;13.60;10.83;;;;;;;;;;4952961;28;21019;-64
2022/01/25 15:03:21;;;;;;;15.40;10.77;;;;;;;;;;4953967;28;20239;-63
2022/01/25 15:05:50;;;;;;;17.17;10.70;;;;;;;;;;4955299;28;20241;-64
2022/01/25 15:08:18;;;;;;;15.63;11.80;;;;;;;;;;4956101;28;20224;-64
2022/01/25 15:10:47;;;;;;;15.73;10.87;;;;;;;;;;4954560;28;20236;-64
2022/01/25 15:13:26;;;;;;;13.27;10.60;;;;;;;;;;4955367;28;20639;-64
2022/01/25 15:15:59;;;;;;;16.27;10.93;;;;;;;;;;4950905;28;20438;-65
2022/01/25 15:18:28;;;;;;;16.13;11.03;;;;;;;;;;4957250;28;20210;-66
2022/01/25 15:20:56;;;;;;;13.67;10.73;;;;;;;;;;4956792;28;20235;-64
2022/01/25 15:23:24;;;;;;;16.63;10.87;;;;;;;;;;4954799;28;20991;-63
2022/01/25 15:25:56;;;;;;;14.57;11.30;;;;;;;;;;4949059;28;20206;-66
2022/01/25 15:28:28;;;;;;;14.27;11.17;;;;;;;;;;4953580;28;20212;-65
2022/01/25 15:30:55;;;;;;;16.80;11.70;;;;;;;;;;4953810;28;20243;-65
2022/01/25 15:33:23;;;;;;;13.63;10.80;;;;;;;;;;4947190;28;20271;-62
2022/01/25 15:35:50;;;;;;;15.73;11.80;;;;;;;;;;4954479;28;20263;-65
2022/01/25 15:38:18;;;;;;;15.67;12.07;;;;;;;;;;4954367;28;20635;-63
2022/01/25 15:40:45;;;;;;;16.73;11.33;;;;;;;;;;4952141;28;20233;-64
2022/01/25 15:43:21;;;;;;;17.20;12.37;;;;;;;;;;4958307;28;20220;-65
2022/01/25 15:48:23;;;;;;;20.97;11.70;;;;;;;;;;4947490;28;20221;-63
2022/01/25 15:50:51;;;;;;;20.00;12.47;;;;;;;;;;4949579;28;20312;-64
2022/01/25 15:53:18;;;;;;;19.00;12.07;;;;;;;;;;4950450;28;20224;-64
2022/01/25 15:55:45;;;;;;;16.70;11.53;;;;;;;;;;4954923;28;20213;-63
2022/01/25 15:58:13;;;;;;;18.67;12.37;;;;;;;;;;4955563;28;20276;-64
2022/01/25 16:00:46;;;;;;;16.67;11.93;;;;;;;;;;4955833;28;20224;-64
2022/01/25 16:03:16;;;;;;;14.47;10.93;;;;;;;;;;4954450;28;20236;-65
2022/01/25 16:05:44;;;;;;;18.17;12.37;;;;;;;;;;4959714;28;20208;-65
2022/01/25 16:08:11;;;;;;;19.07;11.93;;;;;;;;;;4953173;28;20210;-65
2022/01/25 16:10:40;;;;;;;17.87;12.57;;;;;;;;;;4952815;28;20224;-65
2022/01/25 16:13:08;;;;;;;16.73;11.33;;;;;;;;;;4954080;28;20208;-65
2022/01/25 16:15:35;;;;;;;16.40;11.90;;;;;;;;;;4952310;28;20228;-64
2022/01/25 16:18:03;;;;;;;19.00;12.37;;;;;;;;;;4946209;28;20217;-64
2022/01/25 16:20:30;;;;;;;14.90;11.73;;;;;;;;;;4958507;28;20641;-64
2022/01/25 16:22:58;;;;;;;17.53;12.53;;;;;;;;;;4944341;28;20244;-63
2022/01/25 16:25:26;;;;;;;16.00;11.83;;;;;;;;;;4947149;28;21926;-63
2022/01/25 16:27:53;;;;;;;16.70;12.40;;;;;;;;;;4948010;28;20288;-65
2022/01/25 16:30:21;;;;;;;17.50;12.53;;;;;;;;;;4952899;28;20244;-63
2022/01/25 16:32:50;;;;;;;49.90;30.87;;;;;;;;;;4954185;28;20596;-65
2022/01/25 16:35:19;;;;;;;70.00;33.73;;;;;;;;;;4955164;28;20216;-65
2022/01/25 16:37:46;;;;;;;36.77;19.80;;;;;;;;;;4960179;28;20224;-65
2022/01/25 16:40:15;;;;;;;41.50;24.83;;;;;;;;;;4961538;28;20233;-65
2022/01/25 16:42:42;;;;;;;38.17;22.23;;;;;;;;;;4966265;28;20252;-64
2022/01/25 16:45:11;;;;;;;28.33;17.53;;;;;;;;;;4958355;28;20217;-65
2022/01/25 16:47:39;;;;;;;19.07;13.83;;;;;;;;;;4957099;28;20204;-64
2022/01/25 16:50:09;;;;;;;15.97;11.73;;;;;;;;;;4950710;28;20231;-64